createdAt,value
2022-09-14T00:01:26.873Z,93197.53
2022-09-14T00:04:08.465Z,93186.78
2022-09-14T00:06:35.334Z,93182.34
2022-09-14T00:09:03.648Z,93178.31
2022-09-14T00:11:31.832Z,93168.75
2022-09-14T00:13:59.836Z,93179.69
2022-09-14T00:16:29.336Z,93178.47
2022-09-14T00:19:00.562Z,93186.59
2022-09-14T00:21:29.157Z,93184.72
2022-09-14T00:23:55.874Z,93175.59
2022-09-14T00:26:23.514Z,93172.09
2022-09-14T00:28:52.501Z,93174.22
2022-09-14T00:31:20.704Z,93166.72
2022-09-14T00:33:49.241Z,93170.56
2022-09-14T00:36:27.983Z,93162.72
2022-09-14T00:39:00.549Z,93161.88
2022-09-14T00:41:32.936Z,93149.97
2022-09-14T00:44:02.616Z,93152.44
2022-09-14T00:46:44.757Z,93143.72
2022-09-14T00:49:24.104Z,93137.38
2022-09-14T00:51:59.759Z,93157.09
2022-09-14T00:54:27.048Z,93150.44
2022-09-14T00:56:54.740Z,93144.59
2022-09-14T00:59:28.919Z,93141.63
2022-09-14T01:01:55.802Z,93136.19
2022-09-14T01:04:23.495Z,93133.56
2022-09-14T01:07:06.557Z,93132.81
2022-09-14T01:09:39.233Z,93140.25
2022-09-14T01:12:26.639Z,93128.22
2022-09-14T01:15:31.968Z,93139.75
2022-09-14T01:17:58.480Z,93143.56
2022-09-14T01:20:33.982Z,93149.13
2022-09-14T01:23:18.616Z,93146.63
2022-09-14T01:26:03.922Z,93152.28
2022-09-14T01:28:57.538Z,93154.09
2022-09-14T01:31:56.753Z,93152.69
2022-09-14T01:34:34.173Z,93149.75
2022-09-14T01:37:13.323Z,93150.25
2022-09-14T01:39:56.790Z,93144.06
2022-09-14T01:42:26.615Z,93143.81
2022-09-14T01:44:57.450Z,93139.56
2022-09-14T01:47:36.930Z,93141.69
2022-09-14T01:50:10.501Z,93148.28
2022-09-14T01:52:48.596Z,93148.00
2022-09-14T01:55:31.689Z,93148.00
2022-09-14T01:58:09.231Z,93152.94
2022-09-14T02:00:41.428Z,93156.78
2022-09-14T02:03:23.880Z,93154.63
2022-09-14T02:06:02.573Z,93158.94
2022-09-14T02:08:31.266Z,93155.41
2022-09-14T02:10:58.991Z,93150.50
2022-09-14T02:13:26.495Z,93140.44
2022-09-14T02:15:53.363Z,93138.94
2022-09-14T02:18:20.740Z,93143.72
2022-09-14T02:20:53.400Z,93128.94
2022-09-14T02:23:20.157Z,93123.31
2022-09-14T02:25:47.429Z,93116.63
2022-09-14T02:28:14.321Z,93103.25
2022-09-14T02:31:12.768Z,93099.09
2022-09-14T02:33:43.681Z,93099.50
2022-09-14T02:36:51.702Z,93106.31
2022-09-14T02:39:35.545Z,93122.47
2022-09-14T02:42:17.181Z,93131.16
2022-09-14T02:44:55.943Z,93134.00
2022-09-14T02:47:46.663Z,93133.50
2022-09-14T02:50:27.214Z,93137.25
2022-09-14T02:53:08.072Z,93144.88
2022-09-14T02:55:39.413Z,93134.59
2022-09-14T02:58:13.984Z,93122.25
2022-09-14T03:00:43.311Z,93119.28
2022-09-14T03:03:12.263Z,93118.09
2022-09-14T03:05:39.178Z,93121.44
2022-09-14T03:08:06.479Z,93108.84
2022-09-14T03:10:33.351Z,93109.13
2022-09-14T03:13:00.523Z,93111.44
2022-09-14T03:15:28.124Z,93114.41
2022-09-14T03:17:54.800Z,93119.22
2022-09-14T03:20:24.612Z,93113.19
2022-09-14T03:22:51.539Z,93107.41
2022-09-14T03:25:23.033Z,93111.69
2022-09-14T03:27:51.016Z,93109.00
2022-09-14T03:30:18.738Z,93113.97
2022-09-14T03:32:45.776Z,93116.47
2022-09-14T03:35:13.229Z,93121.25
2022-09-14T03:37:41.540Z,93125.03
2022-09-14T03:40:10.516Z,93123.69
2022-09-14T03:42:37.273Z,93127.38
2022-09-14T03:45:04.466Z,93127.09
2022-09-14T03:47:31.305Z,93123.44
2022-09-14T03:49:58.056Z,93118.38
2022-09-14T03:52:24.760Z,93121.91
2022-09-14T03:54:51.441Z,93120.97
2022-09-14T03:57:18.196Z,93129.03
2022-09-14T03:59:44.876Z,93137.44
2022-09-14T04:02:11.651Z,93133.88
2022-09-14T04:04:38.393Z,93136.72
2022-09-14T04:07:05.085Z,93133.59
2022-09-14T04:09:31.831Z,93135.88
2022-09-14T04:11:58.526Z,93142.97
2022-09-14T04:14:25.318Z,93134.00
2022-09-14T04:16:51.998Z,93145.47
2022-09-14T04:19:18.740Z,93137.09
2022-09-14T04:21:45.817Z,93137.91
2022-09-14T04:24:16.404Z,93138.59
2022-09-14T04:26:44.557Z,93142.69
2022-09-14T04:29:12.768Z,93141.94
2022-09-14T04:31:39.472Z,93144.91
2022-09-14T04:34:06.695Z,93146.34
2022-09-14T04:36:33.799Z,93147.56
2022-09-14T04:39:02.708Z,93142.00
2022-09-14T04:41:30.734Z,93128.78
2022-09-14T04:43:58.449Z,93129.44
2022-09-14T04:46:31.284Z,93132.34
2022-09-14T04:48:58.756Z,93114.81
2022-09-14T04:51:27.889Z,93116.66
2022-09-14T04:53:56.497Z,93118.66
2022-09-14T04:56:24.217Z,93117.41
2022-09-14T04:58:56.175Z,93118.56
2022-09-14T05:01:25.683Z,93123.75
2022-09-14T05:03:53.312Z,93122.47
2022-09-14T05:06:26.298Z,93105.78
2022-09-14T05:08:54.229Z,93113.50
2022-09-14T05:11:25.424Z,93113.59
2022-09-14T05:13:52.365Z,93123.06
2022-09-14T05:16:21.669Z,93134.19
2022-09-14T05:18:49.057Z,93127.88
2022-09-14T05:21:17.914Z,93124.31
2022-09-14T05:23:44.762Z,93121.94
2022-09-14T05:26:12.029Z,93127.09
2022-09-14T05:28:38.767Z,93116.28
2022-09-14T05:31:07.710Z,93122.25
2022-09-14T05:33:35.213Z,93125.97
2022-09-14T05:36:03.718Z,93124.53
2022-09-14T05:38:31.935Z,93127.19
2022-09-14T05:40:58.546Z,93130.94
2022-09-14T05:43:25.856Z,93128.16
2022-09-14T05:45:52.572Z,93125.38
2022-09-14T05:48:19.718Z,93124.63
2022-09-14T05:50:47.347Z,93128.16
2022-09-14T05:53:14.117Z,93136.41
2022-09-14T05:55:40.800Z,93138.97
2022-09-14T05:58:07.390Z,93128.63
2022-09-14T06:00:34.079Z,93136.75
2022-09-14T06:03:00.690Z,93133.97
2022-09-14T06:05:28.219Z,93133.69
2022-09-14T06:07:54.954Z,93130.31
2022-09-14T06:10:22.081Z,93138.66
2022-09-14T06:12:51.269Z,93142.06
2022-09-14T06:15:24.551Z,93145.69
2022-09-14T06:17:51.205Z,93145.72
2022-09-14T06:20:18.812Z,93132.66
2022-09-14T06:22:45.479Z,93131.88
2022-09-14T06:25:12.181Z,93126.84
2022-09-14T06:27:38.898Z,93131.97
2022-09-14T06:30:06.143Z,93129.78
2022-09-14T06:32:32.777Z,93129.44
2022-09-14T06:34:59.565Z,93127.00
2022-09-14T06:37:26.182Z,93130.03
2022-09-14T06:39:53.029Z,93119.50
2022-09-14T06:42:19.614Z,93120.69
2022-09-14T06:44:47.553Z,93113.19
2022-09-14T06:47:14.173Z,93113.13
2022-09-14T06:49:40.843Z,93114.75
2022-09-14T06:52:07.445Z,93126.50
2022-09-14T06:54:34.210Z,93131.16
2022-09-14T06:57:00.809Z,93144.25
2022-09-14T06:59:27.453Z,93134.53
2022-09-14T07:01:54.265Z,93137.75
2022-09-14T07:04:21.549Z,93135.75
2022-09-14T07:06:49.928Z,93143.06
2022-09-14T07:09:18.812Z,93141.50
2022-09-14T07:11:46.058Z,93140.91
2022-09-14T07:14:12.745Z,93141.41
2022-09-14T07:16:40.368Z,93147.84
2022-09-14T07:19:11.580Z,93146.88
2022-09-14T07:21:38.475Z,93144.97
2022-09-14T07:24:05.729Z,93142.66
2022-09-14T07:26:39.559Z,93151.53
2022-09-14T07:29:10.036Z,93143.16
2022-09-14T07:31:40.682Z,93146.56
2022-09-14T07:34:08.034Z,93152.09
2022-09-14T07:36:36.069Z,93152.56
2022-09-14T07:39:05.515Z,93156.25
2022-09-14T07:41:34.176Z,93142.03
2022-09-14T07:44:02.645Z,93142.97
2022-09-14T07:46:33.050Z,93153.09
2022-09-14T07:49:01.697Z,93164.19
2022-09-14T07:51:29.777Z,93156.50
2022-09-14T07:53:57.142Z,93160.31
2022-09-14T07:56:25.605Z,93166.09
2022-09-14T07:59:11.381Z,93170.06
2022-09-14T08:01:44.180Z,93174.50
2022-09-14T08:04:11.097Z,93181.47
2022-09-14T08:06:37.865Z,93195.50
2022-09-14T08:09:10.903Z,93188.38
2022-09-14T08:11:38.584Z,93183.56
2022-09-14T08:14:09.919Z,93177.63
2022-09-14T08:16:38.699Z,93181.16
2022-09-14T08:19:10.716Z,93184.81
2022-09-14T08:21:37.429Z,93198.97
2022-09-14T08:24:04.736Z,93212.28
2022-09-14T08:26:31.690Z,93209.13
2022-09-14T08:29:00.460Z,93196.56
2022-09-14T08:31:28.839Z,93194.50
2022-09-14T08:34:03.689Z,93188.03
2022-09-14T08:36:36.137Z,93198.69
2022-09-14T08:39:03.783Z,93193.00
2022-09-14T08:41:46.004Z,93207.56
2022-09-14T08:44:37.904Z,93217.75
2022-09-14T08:47:11.348Z,93207.19
2022-09-14T08:50:12.314Z,93212.63
2022-09-14T08:52:43.762Z,93228.69
2022-09-14T08:55:16.196Z,93219.25
2022-09-14T08:57:50.475Z,93226.19
2022-09-14T09:00:31.226Z,93219.94
2022-09-14T09:03:25.942Z,93219.09
2022-09-14T09:06:15.665Z,93214.47
2022-09-14T09:09:02.719Z,93203.97
2022-09-14T09:11:40.970Z,93193.97
2022-09-14T09:14:32.132Z,93186.19
2022-09-14T09:17:03.229Z,93189.06
2022-09-14T09:19:58.939Z,93187.69
2022-09-14T09:22:29.702Z,93178.56
2022-09-14T09:24:58.663Z,93169.38
2022-09-14T09:27:27.730Z,93158.78
2022-09-14T09:29:54.387Z,93162.03
2022-09-14T09:32:24.748Z,93162.53
2022-09-14T09:34:51.797Z,93172.00
2022-09-14T09:37:22.492Z,93176.47
2022-09-14T09:39:50.318Z,93163.78
2022-09-14T09:42:25.458Z,93168.56
2022-09-14T09:45:05.826Z,93162.59
2022-09-14T09:47:37.578Z,93166.75
2022-09-14T09:50:26.178Z,93153.78
2022-09-14T09:53:03.269Z,93143.97
2022-09-14T09:55:38.918Z,93141.88
2022-09-14T09:58:35.944Z,93153.28
2022-09-14T10:01:12.062Z,93138.22
2022-09-14T10:03:40.933Z,93141.38
2022-09-14T10:06:13.035Z,93140.03
2022-09-14T10:08:45.379Z,93128.44
2022-09-14T10:11:48.242Z,93127.63
2022-09-14T10:14:33.754Z,93122.16
2022-09-14T10:17:18.337Z,93114.22
2022-09-14T10:19:52.198Z,93124.03
2022-09-14T10:22:21.922Z,93130.31
2022-09-14T10:25:01.332Z,93124.69
2022-09-14T10:27:35.730Z,93120.97
2022-09-14T10:30:07.109Z,93124.94
2022-09-14T10:32:34.640Z,93133.66
2022-09-14T10:35:01.413Z,93136.13
2022-09-14T10:37:49.238Z,93130.72
2022-09-14T10:40:19.705Z,93114.47
2022-09-14T10:43:17.210Z,93115.81
2022-09-14T10:46:02.135Z,93108.53
2022-09-14T10:48:54.352Z,93097.50
2022-09-14T10:51:47.201Z,93085.75
2022-09-14T10:54:46.109Z,93077.81
2022-09-14T10:57:34.974Z,93079.53
2022-09-14T11:00:22.983Z,93079.16
2022-09-14T11:02:55.811Z,93095.00
2022-09-14T11:05:27.923Z,93096.88
2022-09-14T11:08:09.669Z,93105.00
2022-09-14T11:10:41.320Z,93107.94
2022-09-14T11:13:37.482Z,93109.06
2022-09-14T11:16:09.833Z,93095.72
2022-09-14T11:19:01.232Z,93098.81
2022-09-14T11:21:57.003Z,93105.22
2022-09-14T11:24:51.113Z,93100.06
2022-09-14T11:27:23.321Z,93097.09
2022-09-14T11:29:55.586Z,93101.03
2022-09-14T11:32:31.458Z,93097.13
2022-09-14T11:35:12.935Z,93095.00
2022-09-14T11:37:45.424Z,93084.91
2022-09-14T11:40:36.780Z,93084.41
2022-09-14T11:43:14.040Z,93075.75
2022-09-14T11:46:08.498Z,93079.78
2022-09-14T11:48:42.841Z,93063.00
2022-09-14T11:51:17.278Z,93065.03
2022-09-14T11:53:45.059Z,93073.81
2022-09-14T11:56:23.757Z,93084.50
2022-09-14T11:58:50.883Z,93083.38
2022-09-14T12:01:47.499Z,93086.50
2022-09-14T12:04:17.512Z,93084.97
2022-09-14T12:06:48.006Z,93079.34
2022-09-14T12:09:17.562Z,93091.41
2022-09-14T12:11:45.566Z,93092.19
2022-09-14T12:14:24.317Z,93099.53
2022-09-14T12:17:35.778Z,93104.06
2022-09-14T12:20:32.661Z,93106.09
2022-09-14T12:23:07.639Z,93107.72
2022-09-14T12:25:36.637Z,93117.53
2022-09-14T12:28:03.321Z,93110.41
2022-09-14T12:30:50.296Z,93108.94
2022-09-14T12:33:32.162Z,93096.47
2022-09-14T12:36:12.304Z,93106.56
2022-09-14T12:38:41.832Z,93094.22
2022-09-14T12:41:08.374Z,93091.34
2022-09-14T12:43:35.136Z,93095.72
2022-09-14T12:46:02.870Z,93092.34
2022-09-14T12:48:47.554Z,93106.00
2022-09-14T12:51:19.728Z,93114.94
2022-09-14T12:53:51.821Z,93116.16
2022-09-14T12:56:34.473Z,93111.31
2022-09-14T12:59:29.943Z,93107.50
2022-09-14T13:02:27.845Z,93119.84
2022-09-14T13:04:58.061Z,93118.75
2022-09-14T13:07:30.698Z,93122.69
2022-09-14T13:09:58.929Z,93117.44
2022-09-14T13:12:44.455Z,93128.50
2022-09-14T13:15:43.986Z,93127.97
2022-09-14T13:18:19.363Z,93122.56
2022-09-14T13:20:51.374Z,93118.44
2022-09-14T13:23:28.571Z,93125.69
2022-09-14T13:25:56.015Z,93123.59
2022-09-14T13:28:26.636Z,93117.47
2022-09-14T13:30:58.827Z,93112.88
2022-09-14T13:33:26.032Z,93114.81
2022-09-14T13:35:58.010Z,93124.63
2022-09-14T13:38:32.662Z,93112.94
2022-09-14T13:41:18.014Z,93125.00
2022-09-14T13:43:47.395Z,93131.09
2022-09-14T13:46:18.358Z,93134.69
2022-09-14T13:48:47.113Z,93125.28
2022-09-14T13:51:14.833Z,93129.34
2022-09-14T13:53:50.013Z,93126.09
2022-09-14T13:56:33.701Z,93128.66
2022-09-14T13:59:10.565Z,93120.06
2022-09-14T14:01:44.007Z,93127.00
2022-09-14T14:04:35.706Z,93124.00
2022-09-14T14:07:23.119Z,93131.75
2022-09-14T14:09:55.261Z,93127.63
2022-09-14T14:12:26.422Z,93132.22
2022-09-14T14:15:09.371Z,93132.53
2022-09-14T14:17:38.576Z,93143.97
2022-09-14T14:20:24.099Z,93154.94
2022-09-14T14:22:58.193Z,93150.31
2022-09-14T14:25:45.791Z,93156.41
2022-09-14T14:28:25.891Z,93157.16
2022-09-14T14:30:54.209Z,93157.16
2022-09-14T14:33:22.560Z,93156.16
2022-09-14T14:35:54.614Z,93155.66
2022-09-14T14:38:23.701Z,93140.66
2022-09-14T14:40:55.097Z,93141.06
2022-09-14T14:43:25.244Z,93128.72
2022-09-14T14:45:58.040Z,93121.66
2022-09-14T14:48:26.181Z,93138.31
2022-09-14T14:50:55.476Z,93143.38
2022-09-14T14:53:25.742Z,93144.38
2022-09-14T14:55:53.184Z,93141.16
2022-09-14T14:58:21.680Z,93120.47
2022-09-14T15:00:48.454Z,93131.09
2022-09-14T15:03:16.002Z,93119.19
2022-09-14T15:05:44.664Z,93109.56
2022-09-14T15:08:12.773Z,93109.84
2022-09-14T15:10:40.150Z,93097.75
2022-09-14T15:13:07.738Z,93096.59
2022-09-14T15:15:34.623Z,93099.94
2022-09-14T15:18:01.393Z,93101.41
2022-09-14T15:20:28.251Z,93103.16
2022-09-14T15:22:55.067Z,93099.25
2022-09-14T15:25:21.820Z,93082.13
2022-09-14T15:27:48.549Z,93081.78
2022-09-14T15:30:15.695Z,93080.72
2022-09-14T15:32:42.846Z,93086.25
2022-09-14T15:35:12.879Z,93085.06
2022-09-14T15:37:39.694Z,93090.94
2022-09-14T15:40:07.058Z,93088.78
2022-09-14T15:42:33.911Z,93085.56
2022-09-14T15:45:00.621Z,93095.19
2022-09-14T15:47:27.224Z,93106.09
2022-09-14T15:49:53.974Z,93099.56
2022-09-14T15:52:20.735Z,93094.34
2022-09-14T15:54:48.432Z,93091.53
2022-09-14T15:57:15.555Z,93088.53
2022-09-14T15:59:42.261Z,93084.38
2022-09-14T16:02:12.092Z,93084.69
2022-09-14T16:04:39.315Z,93068.44
2022-09-14T16:07:09.759Z,93069.47
2022-09-14T16:09:41.301Z,93068.47
2022-09-14T16:12:10.005Z,93053.28
2022-09-14T16:14:37.570Z,93052.84
2022-09-14T16:17:05.546Z,93053.91
2022-09-14T16:19:32.681Z,93048.72
2022-09-14T16:21:59.649Z,93038.19
2022-09-14T16:24:27.357Z,93036.47
2022-09-14T16:26:54.146Z,93033.75
2022-09-14T16:29:24.078Z,93042.94
2022-09-14T16:31:51.295Z,93040.16
2022-09-14T16:34:24.126Z,93026.78
2022-09-14T16:36:51.693Z,93020.72
2022-09-14T16:39:22.952Z,93024.06
2022-09-14T16:41:49.949Z,93027.19
2022-09-14T16:44:21.990Z,93026.53
2022-09-14T16:46:49.575Z,93031.84
2022-09-14T16:49:17.533Z,93027.50
2022-09-14T16:51:44.455Z,93034.72
2022-09-14T16:54:16.136Z,93033.44
2022-09-14T16:56:43.487Z,93028.72
2022-09-14T16:59:10.609Z,93027.72
2022-09-14T17:01:40.094Z,93025.81
2022-09-14T17:04:15.959Z,93026.22
2022-09-14T17:06:44.827Z,93026.91
2022-09-14T17:09:15.521Z,93017.88
2022-09-14T17:11:43.101Z,93030.53
2022-09-14T17:14:14.246Z,93023.91
2022-09-14T17:16:40.892Z,93031.91
2022-09-14T17:19:07.825Z,93021.25
2022-09-14T17:21:37.934Z,93032.41
2022-09-14T17:24:05.777Z,93033.88
2022-09-14T17:26:32.938Z,93035.47
2022-09-14T17:29:00.677Z,93045.81
2022-09-14T17:31:30.515Z,93045.75
2022-09-14T17:34:00.273Z,93043.59
2022-09-14T17:36:27.381Z,93047.84
2022-09-14T17:38:57.962Z,93043.47
2022-09-14T17:41:28.039Z,93048.31
2022-09-14T17:43:57.569Z,93042.50
2022-09-14T17:46:25.515Z,93046.66
2022-09-14T17:48:52.292Z,93046.72
2022-09-14T17:51:22.071Z,93049.69
2022-09-14T17:53:53.757Z,93047.97
2022-09-14T17:56:23.622Z,93058.66
2022-09-14T17:58:58.736Z,93047.31
2022-09-14T18:01:25.447Z,93061.28
2022-09-14T18:03:55.594Z,93061.72
2022-09-14T18:06:25.616Z,93057.56
2022-09-14T18:08:57.582Z,93055.94
2022-09-14T18:11:24.556Z,93060.66
2022-09-14T18:13:51.580Z,93064.69
2022-09-14T18:16:20.755Z,93065.91
2022-09-14T18:18:47.740Z,93068.69
2022-09-14T18:21:16.776Z,93051.94
2022-09-14T18:23:43.873Z,93071.84
2022-09-14T18:26:10.639Z,93071.28
2022-09-14T18:28:37.464Z,93069.56
2022-09-14T18:31:07.118Z,93066.97
2022-09-14T18:33:34.605Z,93071.16
2022-09-14T18:36:01.808Z,93069.56
2022-09-14T18:38:30.003Z,93057.13
2022-09-14T18:41:06.861Z,93072.22
2022-09-14T18:43:34.036Z,93074.75
2022-09-14T18:46:04.618Z,93076.28
2022-09-14T18:48:31.445Z,93068.09
2022-09-14T18:51:02.734Z,93069.34
2022-09-14T18:53:29.441Z,93069.44
2022-09-14T18:56:04.390Z,93068.53
2022-09-14T18:58:35.381Z,93069.72
2022-09-14T19:01:03.273Z,93084.53
2022-09-14T19:03:31.103Z,93087.28
2022-09-14T19:05:58.834Z,93097.91
2022-09-14T19:08:25.616Z,93105.75
2022-09-14T19:10:52.411Z,93110.53
2022-09-14T19:13:19.027Z,93105.50
2022-09-14T19:15:45.800Z,93108.13
2022-09-14T19:18:12.693Z,93113.63
2022-09-14T19:21:04.825Z,93116.59
2022-09-14T19:23:27.071Z,93116.31
2022-09-14T19:25:53.700Z,93118.31
2022-09-14T19:28:20.345Z,93118.22
2022-09-14T19:30:48.731Z,93114.59
2022-09-14T19:33:15.483Z,93106.34
2022-09-14T19:35:42.249Z,93096.03
2022-09-14T19:38:08.890Z,93083.31
2022-09-14T19:40:35.624Z,93089.56
2022-09-14T19:43:02.392Z,93080.25
2022-09-14T19:45:29.362Z,93068.69
2022-09-14T19:47:55.990Z,93079.88
2022-09-14T19:50:22.649Z,93078.81
2022-09-14T19:52:49.361Z,93073.50
2022-09-14T19:55:16.185Z,93067.84
2022-09-14T19:57:42.767Z,93065.34
2022-09-14T20:00:16.285Z,93051.59
2022-09-14T20:02:46.026Z,93050.34
2022-09-14T20:05:13.229Z,93045.38
2022-09-14T20:07:39.933Z,93043.94
2022-09-14T20:10:07.257Z,93046.34
2022-09-14T20:12:34.046Z,93040.63
2022-09-14T20:15:00.705Z,93031.22
2022-09-14T20:17:27.454Z,93044.72
2022-09-14T20:19:54.209Z,93062.91
2022-09-14T20:22:20.849Z,93063.34
2022-09-14T20:24:47.555Z,93073.09
2022-09-14T20:27:14.152Z,93076.91
2022-09-14T20:29:40.758Z,93081.97
2022-09-14T20:32:07.378Z,93086.88
2022-09-14T20:34:34.526Z,93075.69
2022-09-14T20:37:01.254Z,93076.53
2022-09-14T20:39:28.179Z,93077.47
2022-09-14T20:41:54.869Z,93080.94
2022-09-14T20:44:24.637Z,93077.47
2022-09-14T20:46:51.845Z,93079.53
2022-09-14T20:49:21.037Z,93078.66
2022-09-14T20:51:48.210Z,93077.16
2022-09-14T20:54:17.015Z,93076.00
2022-09-14T20:56:44.803Z,93079.50
2022-09-14T20:59:14.454Z,93082.13
2022-09-14T21:01:43.286Z,93086.16
2022-09-14T21:04:16.483Z,93083.03
2022-09-14T21:06:46.352Z,93072.28
2022-09-14T21:09:14.884Z,93077.44
2022-09-14T21:11:42.153Z,93080.84
2022-09-14T21:14:09.011Z,93084.66
2022-09-14T21:16:38.418Z,93084.66
2022-09-14T21:19:08.850Z,93080.84
2022-09-14T21:21:35.979Z,93088.03
2022-09-14T21:24:04.656Z,93083.06
2022-09-14T21:26:34.514Z,93087.00
2022-09-14T21:29:04.841Z,93097.13
2022-09-14T21:31:32.172Z,93101.34
2022-09-14T21:34:01.651Z,93107.94
2022-09-14T21:36:34.918Z,93109.72
2022-09-14T21:39:08.517Z,93115.13
2022-09-14T21:41:39.751Z,93115.03
2022-09-14T21:44:06.563Z,93126.69
2022-09-14T21:46:33.708Z,93119.69
2022-09-14T21:49:00.641Z,93125.59
2022-09-14T21:51:30.482Z,93129.88
2022-09-14T21:54:02.345Z,93131.59
2022-09-14T21:56:30.899Z,93123.72
2022-09-14T21:58:59.981Z,93133.47
2022-09-14T22:01:27.836Z,93133.38
2022-09-14T22:03:55.675Z,93132.84
2022-09-14T22:06:24.709Z,93137.72
2022-09-14T22:08:52.434Z,93145.00
2022-09-14T22:11:29.052Z,93141.63
2022-09-14T22:14:01.247Z,93140.91
2022-09-14T22:16:29.795Z,93136.13
2022-09-14T22:18:59.339Z,93133.66
2022-09-14T22:21:27.941Z,93139.19
2022-09-14T22:23:56.868Z,93137.19
2022-09-14T22:26:25.162Z,93141.38
2022-09-14T22:28:53.612Z,93131.84
2022-09-14T22:31:22.599Z,93129.88
2022-09-14T22:33:50.531Z,93128.84
2022-09-14T22:36:17.739Z,93130.38
2022-09-14T22:38:45.659Z,93133.03
2022-09-14T22:41:15.152Z,93139.78
2022-09-14T22:43:41.778Z,93132.06
2022-09-14T22:46:09.170Z,93133.31
2022-09-14T22:48:36.483Z,93139.16
2022-09-14T22:51:05.034Z,93150.38
2022-09-14T22:53:32.282Z,93151.97
2022-09-14T22:55:59.316Z,93141.63
2022-09-14T22:58:27.845Z,93151.75
2022-09-14T23:00:54.520Z,93150.56
2022-09-14T23:03:21.245Z,93144.25
2022-09-14T23:05:53.294Z,93151.50
2022-09-14T23:08:19.956Z,93141.19
2022-09-14T23:10:47.764Z,93143.97
2022-09-14T23:13:15.461Z,93145.69
2022-09-14T23:15:42.434Z,93151.50
2022-09-14T23:18:09.690Z,93149.22
2022-09-14T23:20:44.015Z,93143.22
2022-09-14T23:23:11.697Z,93135.66
2022-09-14T23:25:39.996Z,93140.28
2022-09-14T23:28:09.507Z,93129.38
2022-09-14T23:30:36.134Z,93132.00
2022-09-14T23:33:02.844Z,93141.53
2022-09-14T23:35:29.874Z,93146.78
2022-09-14T23:37:56.746Z,93156.63
2022-09-14T23:40:23.555Z,93147.56
2022-09-14T23:42:50.411Z,93147.84
2022-09-14T23:45:17.133Z,93160.81
2022-09-14T23:47:45.965Z,93158.03
2022-09-14T23:50:12.638Z,93159.84
2022-09-14T23:52:40.243Z,93159.22
2022-09-14T23:55:07.617Z,93171.63
2022-09-14T23:57:34.256Z,93165.94
